Latest Weather Observations for Mount Isa

IDQ60801

Issued at 4:05 pm EST Tuesday 23 September 2014 (issued every 30 minutes, with the page automatically refreshed every 10 minutes)

About weather observations | Map of weather stations | Latest weather observations for QLD | Other Formats
Station Details ID: 029127 Name: MOUNT ISA AERO Lat: -20.68 Lon: 139.49 Height: 340.3 m
Data from the previous 72 hours. | See also: Recent months at Mount Isa
Date/Time
EST
Temp
°C
App
Temp
°C
Dew
Point
Rel
Hum
%
Delta-T
°C
Wind Press
QNH
hPa
Press
MSL
hPa
Rain
since 9 am
mm
Dir
 
Spd
km/h
Gust
km/h
Spd
kts
Gust
kts
23/04:00pm 32.7 25.9 -9.4 6 17.8 N 20 28 11 15 1012.3 - 0.0
23/03:30pm 32.9 25.9 -11.8 5 18.2 NNW 20 35 11 19 1012.4 - 0.0
23/03:00pm 31.7 26.7 -7.7 7 17.0 N 11 26 6 14 1012.6 1011.2 0.0
23/02:30pm 32.3 26.5 -8.1 7 17.4 N 15 30 8 16 1012.9 - 0.0
23/02:00pm 32.4 25.4 -7.1 7 17.3 NNE 22 33 12 18 1013.1 - 0.0
23/01:30pm 31.6 25.1 -6.2 8 16.7 N 20 35 11 19 1013.7 - 0.0
23/01:00pm 31.2 25.3 -2.5 11 15.8 N 19 28 10 15 1014.1 - 0.0
23/12:30pm 29.8 24.8 -1.2 13 14.7 NNW 15 26 8 14 1014.9 - 0.0
23/12:00pm 30.2 24.9 1.9 16 14.2 NNW 19 24 10 13 1015.4 1014.0 0.0
23/11:30am 27.9 23.6 3.2 20 12.5 NE 15 28 8 15 1016.2 - 0.0
23/11:00am 28.5 25.2 4.3 21 12.5 NE 11 19 6 10 1016.4 - 0.0
23/10:30am 26.4 23.5 8.3 31 9.9 ENE 13 20 7 11 1016.9 - 0.0
23/10:00am 25.7 23.0 8.8 34 9.3 ENE 13 20 7 11 1016.9 - 0.0
23/09:30am 24.6 22.2 10.1 40 8.1 NE 13 19 7 10 1017.1 - 0.0
23/09:00am 23.8 22.2 10.2 42 7.6 E 9 15 5 8 1017.0 1015.7 0.0
23/08:30am 21.4 19.8 6.4 37 7.7 NNE 4 9 2 5 1016.9 - 0.0
23/08:00am 18.7 17.1 2.4 33 7.6 CALM 0 0 0 0 1016.9 - 0.0
23/07:30am 14.3 13.0 4.0 50 4.8 CALM 0 0 0 0 1016.5 - 0.0
23/07:00am 9.6 7.9 1.9 58 3.3 CALM 0 0 0 0 1016.1 - 0.0
23/06:30am 9.1 6.5 1.2 57 3.3 NW 4 7 2 4 1015.8 - 0.0
23/06:13am 9.5 6.3 0.5 53 3.7 NW 7 7 4 4 1015.6 - 0.0
23/06:00am 9.2 5.9 0.4 54 3.6 W 7 9 4 5 1015.5 1014.1 0.0
23/05:50am 9.4 7.5 0.4 53 3.7 CALM 0 0 0 0 1015.4 - 0.0
23/05:30am 9.3 6.2 0.3 53 3.7 W 6 9 3 5 1015.0 - 0.0
23/05:00am 9.2 6.9 0.1 53 3.7 WSW 2 7 1 4 1014.6 - 0.0
23/04:30am 10.5 8.6 0.7 50 4.1 CALM 0 6 0 3 1014.5 - 0.0
23/04:00am 11.2 8.8 -0.2 45 4.7 W 2 9 1 5 1014.6 - 0.0
23/03:30am 11.9 9.9 -0.1 43 5.0 CALM 0 0 0 0 1014.6 - 0.0
23/03:00am 12.6 8.8 -1.0 39 5.6 W 9 11 5 6 1014.6 1013.2 0.0
23/02:30am 11.3 8.2 0.3 46 4.6 NNW 6 7 3 4 1014.9 - 0.0
23/02:00am 12.1 8.9 0.9 46 4.8 NW 7 7 4 4 1014.7 - 0.0
23/01:30am 13.6 10.6 0.9 42 5.5 SW 6 9 3 5 1014.7 - 0.0
23/01:00am 14.3 11.7 0.7 39 5.9 NNE 4 7 2 4 1014.9 - 0.0
23/12:30am 14.9 11.9 1.0 39 6.1 E 6 7 3 4 1015.0 - 0.0
23/12:00am 16.1 12.4 -0.3 32 7.1 SSW 9 13 5 7 1014.9 1013.5 0.0
 
Date/Time
EST
Temp
°C
App
Temp
°C
Dew
Point
Rel
Hum
%
Delta-T
°C
Wind Press
QNH
hPa
Press
MSL
hPa
Rain
since 9 am
mm
Dir
 
Spd
km/h
Gust
km/h
Spd
kts
Gust
kts
22/11:30pm 15.1 13.2 0.7 37 6.3 CALM 0 0 0 0 1015.4 - 0.0
22/11:00pm 17.3 14.4 2.6 37 6.8 S 7 9 4 5 1015.4 - 0.0
22/10:30pm 19.6 15.7 1.0 29 8.5 SSE 11 13 6 7 1015.4 - 0.0
22/10:00pm 21.9 17.8 -0.4 22 10.1 SSE 11 11 6 6 1015.4 - 0.0
22/09:30pm 23.1 18.1 -1.0 20 10.9 S 15 17 8 9 1015.2 - 0.0
22/09:00pm 23.8 19.2 -0.7 19 11.2 S 13 17 7 9 1015.2 1013.8 0.0
22/08:30pm 23.6 18.5 -1.9 18 11.4 S 15 17 8 9 1015.0 - 0.0
22/08:00pm 24.0 19.8 -1.0 19 11.4 S 11 15 6 8 1014.8 - 0.0
22/07:30pm 24.9 21.3 -2.3 16 12.2 S 7 9 4 5 1014.5 - 0.0
22/07:00pm 25.6 20.9 -5.4 12 13.2 S 11 15 6 8 1014.3 - 0.0
22/06:30pm 26.5 21.6 -6.6 11 13.9 SW 11 13 6 7 1014.0 - 0.0
22/06:00pm 27.7 22.4 -6.9 10 14.6 SSW 13 17 7 9 1013.7 1012.3 0.0
22/05:30pm 27.5 22.6 -6.9 10 14.5 SSW 11 17 6 9 1013.5 - 0.0
22/05:00pm 28.5 21.9 -7.2 9 15.1 SSW 20 26 11 14 1013.4 - 0.0
22/04:30pm 28.8 24.2 -8.1 8 15.4 ENE 9 17 5 9 1013.3 - 0.0
22/04:00pm 28.1 22.2 -5.5 10 14.6 S 17 26 9 14 1013.4 - 0.0
22/03:30pm 29.0 24.1 -6.7 9 15.3 WSW 11 19 6 10 1013.3 - 0.0
22/03:00pm 28.9 24.8 -6.4 9 15.2 SSE 7 13 4 7 1013.5 1012.1 0.0
22/02:30pm 28.7 22.6 -7.8 8 15.3 SW 17 30 9 16 1013.9 - 0.0
22/02:00pm 28.1 22.2 -5.5 10 14.6 S 17 30 9 16 1014.0 - 0.0
22/01:30pm 27.9 22.6 -6.8 10 14.7 SSW 13 20 7 11 1014.6 - 0.0
22/01:00pm 27.8 22.8 -7.8 9 14.8 SE 11 15 6 8 1015.3 - 0.0
22/12:30pm 26.7 20.3 -6.6 10 14.0 SSW 19 30 10 16 1016.0 - 0.0
22/12:00pm 26.8 20.5 -6.3 11 14.0 SSE 19 28 10 15 1016.5 1015.2 0.0
22/11:30am 26.3 20.7 -6.2 11 13.7 SSE 15 26 8 14 1017.1 - 0.0
22/11:00am 25.5 18.2 -6.4 11 13.3 S 24 33 13 18 1017.6 - 0.0
22/10:30am 24.7 19.6 -4.9 13 12.6 S 13 22 7 12 1018.0 - 0.0
22/10:00am 23.9 20.1 -4.1 15 12.0 SE 7 13 4 7 1018.1 - 0.0
22/09:30am 22.0 17.0 -4.1 17 11.0 SSE 13 17 7 9 1018.3 - 0.0
22/09:00am 21.4 15.9 -5.6 16 11.0 SSE 15 20 8 11 1018.1 1016.7 0.0
22/08:30am 19.6 14.3 -7.3 15 10.4 S 13 17 7 9 1018.1 - 0.0
22/08:00am 18.4 12.0 -7.3 17 9.8 S 19 22 10 12 1017.9 - 0.0
22/07:30am 16.9 11.6 -7.4 18 9.1 S 13 15 7 8 1017.7 - 0.0
22/07:00am 15.7 10.4 -7.2 20 8.5 S 13 17 7 9 1017.5 - 0.0
22/06:30am 11.5 6.4 -4.9 31 6.1 S 13 15 7 8 1017.2 - 0.0
22/06:00am 8.8 4.6 -4.0 40 4.7 S 9 13 5 7 1017.0 1015.7 0.0
22/05:30am 7.5 5.1 -3.0 47 3.9 CALM 0 0 0 0 1016.8 - 0.0
22/05:00am 8.0 5.6 -3.0 45 4.1 CALM 0 0 0 0 1016.4 - 0.0
22/04:30am 8.3 4.5 -3.6 43 4.4 W 7 9 4 5 1016.3 - 0.0
22/04:00am 8.5 4.8 -2.9 44 4.3 W 7 7 4 4 1016.3 - 0.0
22/03:30am 9.7 6.1 -4.0 38 5.1 WSW 6 7 3 4 1016.6 - 0.0
22/03:00am 10.8 8.5 -2.5 39 5.2 CALM 0 0 0 0 1016.9 1015.6 0.0
22/02:30am 12.4 10.0 -3.2 33 6.1 CALM 0 0 0 0 1017.2 - 0.0
22/02:00am 15.2 13.0 -1.6 31 7.0 CALM 0 6 0 3 1017.6 - 0.0
22/01:30am 17.7 13.6 -2.7 25 8.5 S 9 13 5 7 1017.8 - 0.0
22/01:00am 19.7 14.6 -5.0 18 10.0 S 13 17 7 9 1018.1 - 0.0
22/12:30am 19.7 15.0 -5.0 18 10.0 S 11 13 6 7 1018.3 - 0.0
22/12:00am 20.3 15.2 -5.5 17 10.4 S 13 15 7 8 1018.5 1017.1 0.0
 
Date/Time
EST
Temp
°C
App
Temp
°C
Dew
Point
Rel
Hum
%
Delta-T
°C
Wind Press
QNH
hPa
Press
MSL
hPa
Rain
since 9 am
mm
Dir
 
Spd
km/h
Gust
km/h
Spd
kts
Gust
kts
21/11:30pm 20.4 14.4 -6.3 16 10.6 S 17 22 9 12 1018.7 - 0.0
21/11:00pm 20.6 15.0 -6.2 16 10.7 S 15 19 8 10 1018.7 - 0.0
21/10:30pm 21.0 15.0 -6.8 15 11.0 S 17 20 9 11 1018.9 - 0.0
21/10:00pm 21.5 15.1 -7.0 14 11.3 S 19 28 10 15 1019.0 - 0.0
21/09:30pm 22.2 14.8 -7.9 12 11.8 S 24 30 13 16 1018.9 - 0.0
21/09:00pm 22.8 14.6 -7.8 12 12.1 S 28 35 15 19 1018.6 1017.2 0.0
21/08:30pm 23.0 16.3 -8.4 11 12.3 S 20 28 11 15 1018.3 - 0.0
21/08:00pm 23.7 16.5 -9.3 10 12.8 S 22 30 12 16 1017.9 - 0.0
21/07:30pm 24.4 17.3 -8.8 10 13.1 S 22 32 12 17 1017.5 - 0.0
21/07:00pm 25.0 18.1 -10.9 8 13.7 SSW 20 28 11 15 1017.2 - 0.0
21/06:30pm 25.5 18.1 -11.9 7 14.1 SSW 22 30 12 16 1016.7 - 0.0
21/06:00pm 26.5 17.9 -13.4 6 14.8 SSW 28 35 15 19 1016.3 1014.9 0.0
21/05:30pm 27.5 19.6 -15.1 5 15.5 SSW 24 37 13 20 1016.0 - 0.0
21/05:00pm 28.6 21.0 -15.1 5 16.1 SSW 22 30 12 16 1015.9 - 0.0
21/04:30pm 28.9 20.5 -10.0 7 15.7 S 28 33 15 18 1015.7 - 0.0
21/04:00pm 28.5 21.4 -8.6 8 15.3 SW 22 33 12 18 1015.6 - 0.0
21/03:30pm 28.9 22.5 -7.1 9 15.3 SW 19 32 10 17 1015.8 - 0.0
21/03:00pm 29.3 23.4 -5.8 10 15.3 SW 17 26 9 14 1016.0 1014.6 0.0
21/02:30pm 29.1 22.6 -5.8 10 15.2 SSW 20 30 11 16 1016.2 - 0.0
21/02:00pm 28.3 22.6 -3.4 12 14.3 SW 17 24 9 13 1016.7 - 0.0
21/01:30pm 27.8 21.9 -2.4 13 13.8 SSE 19 28 10 15 1017.2 - 0.0
21/01:00pm 28.4 21.7 -0.8 15 13.8 S 24 32 13 17 1017.8 - 0.0
21/12:30pm 27.4 22.1 -0.7 16 13.2 SSE 17 28 9 15 1018.4 - 0.0
21/12:00pm 26.6 22.3 0.7 18 12.4 SSE 13 19 7 10 1019.1 1017.8 0.0
21/11:30am 25.8 20.2 0.9 19 11.9 S 20 32 11 17 1019.6 - 0.0
21/11:00am 25.9 20.0 1.8 21 11.7 SSE 22 32 12 17 1020.0 - 0.0
21/10:30am 23.8 18.1 2.6 25 10.3 S 22 30 12 16 1020.3 - 0.0
21/10:00am 23.2 17.4 2.1 25 10.1 S 22 28 12 15 1020.7 - 0.0
21/09:30am 22.4 16.2 2.0 26 9.7 S 24 32 13 17 1021.0 - 0.0
21/09:00am 21.1 14.8 1.6 27 9.1 S 24 32 13 17 1020.9 1019.5 0.0
21/08:30am 20.9 13.9 1.9 28 8.9 S 28 33 15 18 1020.7 - 0.0
21/08:00am 20.2 14.3 1.7 29 8.6 SSE 22 30 12 16 1020.5 - 0.0
21/07:30am 19.3 14.7 1.4 30 8.2 SSE 15 19 8 10 1019.9 - 0.0
21/07:00am 18.7 13.7 1.1 30 8.0 S 17 20 9 11 1019.6 - 0.0
21/06:30am 18.4 13.3 0.9 31 7.9 S 17 20 9 11 1019.3 - 0.0
21/06:00am 19.0 14.5 -0.2 27 8.5 S 13 19 7 10 1019.0 1017.6 0.0
21/05:30am 18.6 14.6 0.2 29 8.2 SSE 11 15 6 8 1018.9 - 0.0
21/05:00am 18.5 14.0 0.0 28 8.2 S 13 15 7 8 1018.6 - 0.0
21/04:30am 18.9 14.1 0.0 28 8.4 SSE 15 20 8 11 1018.3 - 0.0
21/04:00am 19.7 14.8 -0.7 25 9.0 S 15 20 8 11 1018.3 - 0.0
21/03:30am 20.2 14.8 -1.2 23 9.4 S 17 24 9 13 1018.5 - 0.0
21/03:00am 20.2 14.8 -1.6 23 9.5 SSE 17 22 9 12 1018.4 1017.0 0.0
21/02:30am 20.3 13.7 -3.1 20 9.9 SSE 22 33 12 18 1018.0 - 0.0
21/02:00am 20.4 13.3 -4.2 18 10.2 SSE 24 33 13 18 1018.0 - 0.0
21/01:30am 20.7 13.5 -4.9 17 10.5 SSE 24 32 13 17 1017.9 - 0.0
21/01:00am 20.8 13.2 -5.7 16 10.7 SSE 26 39 14 21 1017.8 - 0.0
21/12:30am 20.6 13.8 -5.2 17 10.5 SSE 22 35 12 19 1017.7 - 0.0
21/12:21am 20.8 12.4 -5.7 16 10.7 SSE 30 48 16 26 1017.8 - 0.0
21/12:00am 20.9 13.3 -5.9 16 10.8 SE 26 41 14 22 1017.7 1016.3 0.0
 
Date/Time
EST
Temp
°C
App
Temp
°C
Dew
Point
Rel
Hum
%
Delta-T
°C
Wind Press
QNH
hPa
Press
MSL
hPa
Rain
since 9 am
mm
Dir
 
Spd
km/h
Gust
km/h
Spd
kts
Gust
kts
20/11:30pm 21.0 12.7 -5.2 17 10.7 SSE 30 39 16 21 1017.9 - 0.0
20/11:00pm 21.6 13.3 -5.1 16 11.0 SSE 30 44 16 24 1018.0 - 0.0
20/10:35pm 22.2 13.9 -5.0 16 11.3 SSE 30 48 16 26 1017.8 - 0.0
20/10:30pm 22.4 13.5 -5.0 15 11.4 SSE 33 48 18 26 1017.8 - 0.0
20/10:00pm 24.4 16.3 -6.3 12 12.7 SSE 28 39 15 21 1017.0 - 0.0
20/09:30pm 25.9 17.8 -6.9 11 13.6 SSE 28 43 15 23 1016.7 - 0.0
20/09:00pm 26.5 17.7 -6.1 11 13.8 SSE 32 39 17 21 1016.4 1015.0 0.0
20/08:49pm 26.9 18.9 -6.0 11 14.0 SSE 28 46 15 25 1016.3 - 0.0
20/08:30pm 27.4 18.7 -5.5 11 14.2 SSE 32 44 17 24 1016.0 - 0.0
20/08:00pm 28.2 18.8 -6.4 10 14.8 S 35 50 19 27 1015.5 - 0.0
20/07:50pm 28.3 20.3 -5.5 10 14.7 S 28 46 15 25 1015.3 - 0.0
20/07:44pm 28.4 21.1 -5.8 10 14.8 S 24 32 13 17 1015.1 - 0.0
20/07:30pm 23.4 20.2 -0.3 21 10.9 E 6 7 3 4 1014.5 - 0.0
20/07:00pm 27.5 24.7 3.4 21 12.2 ESE 7 9 4 5 1014.3 - 0.0
20/06:30pm 30.3 27.1 3.3 18 13.9 ESE 9 11 5 6 1013.9 - 0.0
20/06:00pm 32.1 27.8 -5.0 9 16.8 NNE 9 13 5 7 1013.6 1012.2 0.0
20/05:30pm 32.7 28.1 -4.2 9 17.0 N 11 15 6 8 1013.4 - 0.0
20/05:00pm 33.0 29.0 -6.1 8 17.5 N 7 13 4 7 1013.4 - 0.0
20/04:30pm 34.1 29.3 -2.9 9 17.6 NNW 13 19 7 10 1013.5 - 0.0

Other Formats:

Comma delimited format used in spreadsheet applications
http://www.bom.gov.au/fwo/IDQ60801/IDQ60801.94332.axf

JavaScript Object Notation format (JSON) in row-major order
http://www.bom.gov.au/fwo/IDQ60801/IDQ60801.94332.json